Herat, Afghanistan

12:15 PM AFT on August 24, 2016 (GMT +0430)
Herat | | Change Station

Elev 3163 ft 34.21 °N, 62.23 °E | Updated 50 minutes ago

Clear
Clear
86 °F
Feels Like 86 °F
N
10
Wind Variable Wind from North

Today
High -- | Low -- °F
--% Chance of Precip.
Yesterday
High -- | Low -- °F
Precip. -- in
Pressure 29.89 in
Visibility -9999.0 miles
Clouds
Dew Point 52 °F
Humidity 31%
Rainfall 0.00 in
Snow Depth Not available.
5:48 AM 6:57 PM
Waning Gibbous, 59% visible
METAR OAHR 240655Z 36009KT CAVOK 30/11 Q1012 RMK BLU
Pressure 29.89 in
Visibility -9999.0 miles
Clouds
Dew Point 52 °F
Humidity 31%
Rainfall 0.00 in
Snow Depth Not available.
5:48 AM 6:57 PM
Waning Gibbous, 59% visible
METAR OAHR 240655Z 36009KT CAVOK 30/11 Q1012 RMK BLU

10-Day Weather Forecast

No radar image for this location.
×

Almanac

Astronomy

Aug. 24, 2016 Rise Set
Actual Time
Civil Twilight
Nautical Twilight
Astronomical Twilight
Moon
Length of Visible Light
Length of Day
Tomorrow will be .
, % of the Moon is Illuminated

Today's Extremes

Country Highs Country Lows

Community

WunderPhotos

Upload Photos

1,934,554 photos uploaded!

WunderBlog® & News

Nearby

Air Quality

  Air Quality AQ Index Pollutant
Not available.

Snow Depth

Station Depth Elevation

Earthquake Activity

City Distance Mag. Time & Date
Minimum magnitude displayed is 2.5.

Coastal Water Temperatures

Place Temperature

Stations

Nearby Weather Stations

Station Location Temp. Windchill Dew Point Humidity Wind Precip. Elev Updated Type